Time;durP1;ratioP1;P1;durP2;ratioP2;P2;SDS_P1;SDS_P2;PMS_P1;PMS_P2;Temp;Humidity;BMP_temperature;BMP_pressure;BME280_temperature;BME280_humidity;BME280_pressure;Samples;Min_cycle;Max_cycle;Signal;HPM_P1;HPM_P2
2022/08/06 00:00:08;;;;;;;8.90;2.50;;;;;;;22.63;67.79;100272.40;107245;1268;25264;-79
2022/08/06 00:02:59;;;;;;;7.30;2.20;;;;;;;22.59;68.49;100268.46;107374;1268;24263;-78
2022/08/06 00:05:30;;;;;;;7.80;2.70;;;;;;;22.54;68.77;100268.04;107245;1267;22534;-79
2022/08/06 00:08:01;;;;;;;10.10;2.70;;;;;;;22.53;68.78;100281.42;107285;1266;25519;-79
2022/08/06 00:10:32;;;;;;;8.90;2.30;;;;;;;22.53;68.95;100292.80;107386;1268;24253;-79
2022/08/06 00:13:04;;;;;;;8.20;2.70;;;;;;;22.53;69.23;100297.63;107353;1267;22573;-79
2022/08/06 00:15:36;;;;;;;8.50;2.60;;;;;;;22.51;69.51;100310.65;107429;1268;27586;-78
2022/08/06 00:18:07;;;;;;;8.90;2.50;;;;;;;22.47;69.79;100313.00;107254;1268;22989;-79
2022/08/06 00:20:38;;;;;;;7.80;2.20;;;;;;;22.45;69.83;100319.02;107434;1268;25324;-79
2022/08/06 00:23:10;;;;;;;8.10;2.50;;;;;;;22.44;70.06;100324.47;107137;1268;25015;-79
2022/08/06 00:25:41;;;;;;;8.00;2.60;;;;;;;22.43;70.21;100333.71;107338;1267;22550;-79
2022/08/06 00:28:12;;;;;;;5.80;1.80;;;;;;;22.41;70.41;100345.14;107276;1266;22544;-79
2022/08/06 00:30:43;;;;;;;6.80;2.40;;;;;;;22.39;71.01;100351.02;107328;1268;22574;-79
2022/08/06 00:33:16;;;;;;;5.90;1.90;;;;;;;22.38;70.74;100375.67;107280;1266;22540;-79
2022/08/06 00:35:48;;;;;;;9.20;2.30;;;;;;;22.38;71.16;100399.39;107255;1268;22551;-77
2022/08/06 00:38:19;;;;;;;8.60;2.40;;;;;;;22.33;71.97;100412.99;106685;1268;25378;-75
2022/08/06 00:40:51;;;;;;;7.70;2.60;;;;;;;22.26;72.35;100417.63;106514;1268;22540;-76
2022/08/06 00:43:24;;;;;;;8.00;2.50;;;;;;;22.17;72.84;100411.34;106740;1268;26558;-77
2022/08/06 00:45:55;;;;;;;6.30;2.30;;;;;;;22.09;73.67;100396.55;106803;1268;25337;-76
2022/08/06 00:48:26;;;;;;;7.00;2.60;;;;;;;21.98;74.51;100380.46;106708;1268;22614;-77
2022/08/06 00:50:58;;;;;;;6.30;2.20;;;;;;;21.87;75.12;100363.23;106612;1268;22551;-75
2022/08/06 00:53:29;;;;;;;8.00;2.70;;;;;;;21.74;75.79;100359.53;106652;1268;22640;-75
2022/08/06 00:56:02;;;;;;;8.30;2.80;;;;;;;21.64;76.99;100358.02;106579;1268;22488;-74
2022/08/06 00:58:33;;;;;;;8.70;3.10;;;;;;;21.55;76.86;100364.27;106677;1268;22556;-75
2022/08/06 01:01:04;;;;;;;7.20;2.90;;;;;;;21.49;76.96;100359.92;106678;1268;23861;-76
2022/08/06 01:03:35;;;;;;;7.80;2.70;;;;;;;21.44;77.54;100363.73;106553;1268;22524;-76
2022/08/06 01:06:07;;;;;;;7.60;2.70;;;;;;;21.38;78.40;100365.45;106714;1268;25235;-76
2022/08/06 01:08:38;;;;;;;9.30;2.70;;;;;;;21.33;79.15;100366.17;106719;1268;22588;-76
2022/08/06 01:11:09;;;;;;;8.70;2.80;;;;;;;21.28;79.59;100368.95;106679;1268;22526;-76
2022/08/06 01:13:42;;;;;;;7.50;2.70;;;;;;;21.25;79.08;100371.44;106593;1267;23905;-75
2022/08/06 01:16:22;;;;;;;10.70;2.70;;;;;;;21.24;80.07;100368.35;106714;1266;25464;-75
2022/08/06 01:19:02;;;;;;;7.60;2.70;;;;;;;21.22;80.02;100367.69;106615;1268;22541;-76
2022/08/06 01:21:51;;;;;;;8.10;2.80;;;;;;;21.21;79.42;100357.76;106670;1268;22532;-76
2022/08/06 01:24:55;;;;;;;9.90;2.90;;;;;;;21.23;79.90;100349.08;106672;1268;24230;-76
2022/08/06 01:27:43;;;;;;;7.10;2.80;;;;;;;21.24;79.79;100342.16;106543;1267;23361;-76
2022/08/06 01:30:17;;;;;;;8.10;2.70;;;;;;;21.23;80.07;100346.23;106690;1268;22578;-76
2022/08/06 01:32:53;;;;;;;8.20;3.20;;;;;;;21.23;79.92;100360.89;106824;1266;25525;-76
2022/08/06 01:35:30;;;;;;;9.70;3.30;;;;;;;21.23;80.16;100364.67;106660;1268;22555;-76
2022/08/06 01:38:06;;;;;;;9.60;3.20;;;;;;;21.22;80.40;100375.21;106666;1268;22780;-75
2022/08/06 01:40:41;;;;;;;11.10;2.80;;;;;;;21.20;80.43;100382.71;106568;1268;22530;-75
2022/08/06 01:43:17;;;;;;;8.10;3.00;;;;;;;21.21;80.49;100386.98;106632;1268;24353;-75
2022/08/06 01:45:52;;;;;;;10.30;3.10;;;;;;;21.19;80.90;100398.99;106651;1268;22524;-75
2022/08/06 01:48:27;;;;;;;9.30;3.00;;;;;;;21.15;81.44;100406.30;106651;1268;22701;-76
2022/08/06 01:51:02;;;;;;;9.70;3.50;;;;;;;21.10;82.55;100404.60;106633;1268;24141;-76
2022/08/06 01:53:38;;;;;;;7.70;3.00;;;;;;;21.04;82.59;100401.27;106720;1268;22563;-76
2022/08/06 01:56:11;;;;;;;9.70;3.40;;;;;;;21.00;82.86;100393.59;106652;1268;24265;-76
2022/08/06 01:58:47;;;;;;;9.70;3.20;;;;;;;20.96;83.76;100393.09;106731;1268;25324;-76
2022/08/06 02:01:20;;;;;;;8.20;2.60;;;;;;;20.92;83.90;100402.10;106655;1267;22554;-76
2022/08/06 02:03:54;;;;;;;10.30;3.60;;;;;;;20.89;84.40;100410.99;106648;1268;25604;-75
2022/08/06 02:06:33;;;;;;;10.00;3.20;;;;;;;20.87;84.27;100415.73;106715;1267;22551;-75
2022/08/06 02:09:09;;;;;;;9.50;3.70;;;;;;;20.86;85.05;100426.27;106668;1268;24271;-76
2022/08/06 02:11:44;;;;;;;12.90;5.00;;;;;;;20.84;85.21;100433.08;106724;1268;22755;-76
2022/08/06 02:14:16;;;;;;;11.90;5.00;;;;;;;20.82;85.75;100438.99;106626;1268;22579;-76
2022/08/06 02:16:49;;;;;;;13.30;5.80;;;;;;;20.78;86.30;100446.13;106746;1268;22833;-76
2022/08/06 02:19:22;;;;;;;16.40;6.40;;;;;;;20.73;86.17;100455.41;106627;1268;23462;-76
2022/08/06 02:21:55;;;;;;;18.10;6.70;;;;;;;20.69;87.13;100460.65;106654;1268;25267;-75
2022/08/06 02:24:28;;;;;;;12.10;6.40;;;;;;;20.64;87.08;100456.67;106745;1268;22515;-76
2022/08/06 02:27:03;;;;;;;16.20;8.10;;;;;;;20.59;88.00;100470.48;106870;1267;22583;-75
2022/08/06 02:29:35;;;;;;;15.90;7.00;;;;;;;20.55;88.39;100474.38;106758;1268;23448;-75
2022/08/06 02:32:07;;;;;;;14.90;7.60;;;;;;;20.52;88.49;100484.23;106632;1268;24238;-75
2022/08/06 02:34:39;;;;;;;15.10;7.10;;;;;;;20.49;88.03;100480.40;106688;1268;22543;-75
2022/08/06 02:37:16;;;;;;;14.20;6.50;;;;;;;20.47;88.32;100482.25;106706;1268;23072;-76
2022/08/06 02:39:53;;;;;;;13.50;6.00;;;;;;;20.42;88.95;100483.73;106652;1268;22537;-75
2022/08/06 02:42:29;;;;;;;16.70;6.20;;;;;;;20.38;88.37;100486.23;106623;1268;24279;-75
2022/08/06 02:45:06;;;;;;;12.20;5.40;;;;;;;20.34;89.54;100499.44;106758;1268;22551;-76
2022/08/06 02:47:43;;;;;;;12.50;5.20;;;;;;;20.30;89.02;100506.46;106604;1268;22624;-75
2022/08/06 02:50:18;;;;;;;13.20;5.70;;;;;;;20.26;89.22;100517.31;106562;1268;22530;-75
2022/08/06 02:52:54;;;;;;;12.60;4.70;;;;;;;20.19;88.90;100521.56;106699;1268;22540;-76
2022/08/06 02:55:30;;;;;;;12.80;5.10;;;;;;;20.11;88.95;100525.48;106658;1268;22526;-75
2022/08/06 02:58:24;;;;;;;13.20;5.40;;;;;;;20.03;88.71;100520.15;106696;1268;22610;-75
2022/08/06 03:00:59;;;;;;;11.80;5.00;;;;;;;19.95;88.55;100514.14;106732;1268;22596;-76
2022/08/06 03:03:32;;;;;;;13.00;4.30;;;;;;;19.88;89.42;100521.41;106670;1268;25684;-75
2022/08/06 03:06:07;;;;;;;13.50;4.80;;;;;;;19.82;89.20;100523.41;106669;1268;25279;-76
2022/08/06 03:08:38;;;;;;;11.40;4.30;;;;;;;19.75;88.81;100519.99;106843;1268;24001;-75
2022/08/06 03:11:12;;;;;;;10.60;4.20;;;;;;;19.70;88.94;100509.77;106624;1267;24212;-75
2022/08/06 03:13:45;;;;;;;13.00;3.80;;;;;;;19.65;88.42;100504.48;106612;1268;22521;-75
2022/08/06 03:16:19;;;;;;;10.20;3.40;;;;;;;19.61;88.57;100498.10;106744;1268;22537;-76
2022/08/06 03:18:52;;;;;;;9.30;3.30;;;;;;;19.56;88.30;100499.77;106650;1268;22571;-75
2022/08/06 03:21:25;;;;;;;11.20;3.30;;;;;;;19.50;88.47;100522.64;106690;1268;25284;-75
2022/08/06 03:23:59;;;;;;;8.10;2.50;;;;;;;19.42;88.35;100511.36;106685;1268;22534;-76
2022/08/06 03:26:33;;;;;;;9.60;3.00;;;;;;;19.37;87.92;100489.77;106662;1268;22545;-75
2022/08/06 03:29:05;;;;;;;10.60;2.80;;;;;;;19.33;87.95;100482.50;106617;1268;23378;-75
2022/08/06 03:31:37;;;;;;;8.80;2.70;;;;;;;19.28;88.22;100473.23;106699;1267;23169;-75
2022/08/06 03:34:10;;;;;;;12.80;3.70;;;;;;;19.26;88.11;100471.30;106735;1268;22552;-76
2022/08/06 03:36:42;;;;;;;8.90;3.10;;;;;;;19.23;88.39;100479.67;106762;1268;24278;-75
2022/08/06 03:39:15;;;;;;;11.40;3.60;;;;;;;19.19;88.45;100485.23;106784;1268;22846;-75
2022/08/06 03:41:48;;;;;;;8.30;3.10;;;;;;;19.17;88.42;100494.27;106638;1267;24898;-75
2022/08/06 03:44:20;;;;;;;10.30;3.50;;;;;;;19.14;88.72;100502.11;106646;1268;22544;-75
2022/08/06 03:47:04;;;;;;;10.20;3.40;;;;;;;19.10;89.04;100521.52;106725;1268;22541;-75
2022/08/06 03:49:40;;;;;;;9.70;2.90;;;;;;;19.07;89.31;100528.08;106635;1268;24330;-75
2022/08/06 03:52:17;;;;;;;6.10;2.00;;;;;;;19.02;89.11;100530.65;107605;1258;22741;-79
2022/08/06 03:54:55;;;;;;;5.90;1.50;;;;;;;18.96;89.04;100540.95;107531;1268;26528;-79
2022/08/06 03:57:33;;;;;;;5.80;1.70;;;;;;;18.86;88.65;100536.68;107512;1268;24004;-77
2022/08/06 04:00:09;;;;;;;6.10;1.60;;;;;;;18.77;88.69;100531.67;107484;1268;22543;-79
2022/08/06 04:02:45;;;;;;;6.20;1.40;;;;;;;18.72;88.70;100536.41;107649;1268;22535;-78
2022/08/06 04:05:19;;;;;;;4.40;1.30;;;;;;;18.64;88.70;100551.09;107559;1268;22534;-79
2022/08/06 04:07:53;;;;;;;4.70;1.20;;;;;;;18.52;88.76;100560.13;107586;1268;22534;-79
2022/08/06 04:10:27;;;;;;;6.00;1.10;;;;;;;18.41;89.00;100562.62;107499;1268;22697;-78
2022/08/06 04:13:00;;;;;;;4.10;1.10;;;;;;;18.32;89.20;100581.38;107602;1268;26641;-80
2022/08/06 04:15:31;;;;;;;2.90;0.80;;;;;;;18.24;89.48;100587.15;107823;1268;22544;-79
2022/08/06 04:18:02;;;;;;;2.30;0.90;;;;;;;18.16;89.52;100590.23;107811;1268;23710;-79
2022/08/06 04:20:35;;;;;;;3.70;1.00;;;;;;;18.11;89.46;100595.35;107499;1268;22467;-79
2022/08/06 04:23:06;;;;;;;4.60;0.90;;;;;;;18.06;89.78;100601.63;107620;1268;22538;-78
2022/08/06 04:25:54;;;;;;;2.90;0.80;;;;;;;18.02;90.71;100608.89;107486;1268;24168;-78
2022/08/06 04:28:28;;;;;;;2.90;0.80;;;;;;;18.01;90.36;100616.98;107542;1268;22535;-78
2022/08/06 04:31:00;;;;;;;3.80;1.00;;;;;;;17.98;90.37;100626.70;107525;1268;22576;-78
2022/08/06 04:33:34;;;;;;;4.40;1.00;;;;;;;17.94;90.06;100640.48;107622;1268;22793;-79
2022/08/06 04:36:08;;;;;;;3.10;0.80;;;;;;;17.92;90.77;100650.66;107510;1268;22713;-79
2022/08/06 04:38:41;;;;;;;2.80;0.70;;;;;;;17.88;91.02;100666.79;107470;1268;24237;-78
2022/08/06 04:41:14;;;;;;;2.20;0.70;;;;;;;17.81;90.77;100672.01;107852;1268;22505;-80
2022/08/06 04:43:46;;;;;;;3.20;0.70;;;;;;;17.76;90.36;100684.35;107704;1268;22600;-78
2022/08/06 04:46:17;;;;;;;4.40;1.10;;;;;;;17.64;90.43;100697.07;107705;1268;22694;-80
2022/08/06 04:48:49;;;;;;;5.70;1.20;;;;;;;17.52;89.23;100692.05;107635;1268;22529;-79
2022/08/06 04:51:23;;;;;;;6.10;1.30;;;;;;;17.36;88.46;100699.40;107778;1268;22512;-79
2022/08/06 04:53:54;;;;;;;7.20;1.80;;;;;;;17.18;87.86;100710.23;107463;1268;22516;-78
2022/08/06 04:56:25;;;;;;;6.40;1.70;;;;;;;17.00;88.07;100719.98;107490;1268;25367;-79
2022/08/06 04:58:56;;;;;;;7.20;1.70;;;;;;;16.80;87.60;100723.45;107478;1268;24246;-79
2022/08/06 05:01:27;;;;;;;7.20;1.30;;;;;;;16.59;87.32;100730.79;107548;1267;25254;-79
2022/08/06 05:03:58;;;;;;;5.90;0.90;;;;;;;16.40;87.12;100742.04;107691;1268;22547;-78
2022/08/06 05:06:38;;;;;;;7.60;1.20;;;;;;;16.22;87.05;100745.55;107708;1268;22552;-79
2022/08/06 05:09:14;;;;;;;3.30;1.00;;;;;;;16.08;87.61;100752.66;107523;1265;22482;-79
2022/08/06 05:11:52;;;;;;;4.70;0.90;;;;;;;15.95;87.88;100765.55;107216;1268;22528;-79
2022/08/06 05:14:30;;;;;;;3.10;0.80;;;;;;;15.86;87.93;100769.17;107373;1268;22532;-79
2022/08/06 05:17:03;;;;;;;4.70;0.90;;;;;;;15.81;88.41;100772.89;107420;1268;22689;-79
2022/08/06 05:19:39;;;;;;;5.00;0.70;;;;;;;15.79;88.93;100787.20;107498;1268;24258;-79
2022/08/06 05:22:14;;;;;;;5.00;0.70;;;;;;;15.76;89.22;100792.05;107501;1268;23412;-79
2022/08/06 05:24:47;;;;;;;4.30;0.90;;;;;;;15.75;89.73;100804.44;107632;1268;23211;-79
2022/08/06 05:27:18;;;;;;;4.20;1.10;;;;;;;15.74;89.43;100802.73;107577;1271;22587;-79
2022/08/06 05:29:50;;;;;;;3.70;0.90;;;;;;;15.77;89.56;100813.40;107687;1271;23297;-80
2022/08/06 05:32:21;;;;;;;3.40;1.00;;;;;;;15.77;89.65;100816.05;107761;1268;25511;-79
2022/08/06 05:34:53;;;;;;;6.00;1.00;;;;;;;15.77;90.26;100823.69;107808;1268;22581;-79
2022/08/06 05:37:25;;;;;;;5.80;1.10;;;;;;;15.74;90.52;100828.52;107774;1268;23353;-80
2022/08/06 05:39:56;;;;;;;7.80;1.20;;;;;;;15.73;90.30;100835.95;107744;1268;25033;-80
2022/08/06 05:42:27;;;;;;;6.10;0.80;;;;;;;15.72;90.66;100840.14;107835;1267;25372;-79
2022/08/06 05:44:58;;;;;;;4.40;1.20;;;;;;;15.69;91.06;100836.79;107891;1267;26138;-79
2022/08/06 05:47:37;;;;;;;8.90;1.20;;;;;;;15.67;91.49;100844.29;107786;1268;23030;-80
2022/08/06 05:50:15;;;;;;;6.00;1.10;;;;;;;15.65;91.59;100845.52;107813;1268;24377;-80
2022/08/06 05:52:53;;;;;;;6.90;1.20;;;;;;;15.65;91.37;100845.15;107778;1265;22540;-80
2022/08/06 05:55:31;;;;;;;5.10;1.30;;;;;;;15.66;91.52;100848.94;107826;1268;22549;-80
2022/08/06 05:58:05;;;;;;;8.30;1.50;;;;;;;15.67;91.52;100856.92;107794;1268;22551;-80
2022/08/06 06:00:38;;;;;;;9.30;1.50;;;;;;;15.68;91.55;100852.85;107792;1268;22462;-80
2022/08/06 06:03:12;;;;;;;7.40;1.40;;;;;;;15.69;91.86;100862.98;107903;1267;25911;-80
2022/08/06 06:05:44;;;;;;;8.00;1.40;;;;;;;15.69;91.82;100869.27;107871;1267;22581;-79
2022/08/06 06:08:18;;;;;;;4.30;1.20;;;;;;;15.69;91.76;100868.52;107757;1268;23524;-80
2022/08/06 06:10:49;;;;;;;3.60;1.10;;;;;;;15.71;91.68;100875.13;107818;1267;25315;-82
2022/08/06 06:13:21;;;;;;;5.60;1.50;;;;;;;15.73;92.01;100876.63;107889;1267;22567;-79
2022/08/06 06:16:03;;;;;;;7.30;1.50;;;;;;;15.74;91.87;100877.41;107839;1268;22545;-80
2022/08/06 06:18:48;;;;;;;5.80;1.40;;;;;;;15.75;91.92;100882.07;107869;1267;22567;-80
2022/08/06 06:21:30;;;;;;;7.20;1.60;;;;;;;15.76;92.00;100882.45;107668;1268;22553;-80
2022/08/06 06:24:10;;;;;;;6.90;1.50;;;;;;;15.78;91.93;100887.38;107765;1267;22569;-80
2022/08/06 06:26:49;;;;;;;5.70;1.20;;;;;;;15.80;91.82;100896.77;107829;1267;24024;-80
2022/08/06 06:29:35;;;;;;;5.40;1.40;;;;;;;15.82;91.91;100894.67;107806;1267;25222;-80
2022/08/06 06:32:15;;;;;;;5.70;1.30;;;;;;;15.83;91.86;100894.58;107792;1267;22531;-80
2022/08/06 06:34:55;;;;;;;5.50;1.40;;;;;;;15.85;92.00;100894.39;107923;1267;24357;-79
2022/08/06 06:37:38;;;;;;;6.80;1.30;;;;;;;15.86;92.29;100898.34;107750;1267;22491;-79
2022/08/06 06:40:19;;;;;;;5.20;1.40;;;;;;;15.87;92.12;100905.52;107770;1268;23381;-79
2022/08/06 06:42:58;;;;;;;10.60;1.80;;;;;;;15.90;91.85;100903.54;107433;1267;22628;-78
2022/08/06 06:45:37;;;;;;;8.20;1.50;;;;;;;15.93;91.93;100908.73;107564;1268;24221;-79
2022/08/06 06:48:14;;;;;;;5.90;2.10;;;;;;;15.94;92.00;100915.87;107565;1267;22959;-79
2022/08/06 06:50:50;;;;;;;7.00;1.70;;;;;;;15.96;91.86;100913.89;107730;1267;24248;-79
2022/08/06 06:53:28;;;;;;;7.00;1.70;;;;;;;15.97;91.82;100923.67;107720;1267;24320;-79
2022/08/06 06:56:01;;;;;;;7.40;2.00;;;;;;;15.98;91.86;100922.35;107400;1267;22546;-78
2022/08/06 06:58:37;;;;;;;7.70;1.50;;;;;;;16.00;91.86;100926.73;107422;1268;23063;-78
2022/08/06 07:01:11;;;;;;;6.00;1.60;;;;;;;16.00;92.16;100926.05;107512;1268;24519;-79
2022/08/06 07:03:46;;;;;;;4.30;1.60;;;;;;;15.99;92.22;100926.10;107614;1267;22698;-79
2022/08/06 07:06:19;;;;;;;5.80;1.90;;;;;;;15.98;92.28;100921.58;107519;1268;25838;-78
2022/08/06 07:08:53;;;;;;;6.30;1.90;;;;;;;16.00;92.20;100932.96;107479;1268;25373;-78
2022/08/06 07:11:27;;;;;;;8.30;2.10;;;;;;;16.02;92.27;100940.20;107542;1268;24172;-79
2022/08/06 07:14:00;;;;;;;9.00;2.20;;;;;;;16.04;92.31;100930.89;107431;1268;22538;-79
2022/08/06 07:16:35;;;;;;;5.80;1.90;;;;;;;16.06;92.26;100927.33;107312;1267;25363;-78
2022/08/06 07:19:07;;;;;;;6.30;1.80;;;;;;;16.08;92.14;100933.23;107401;1268;22564;-78
2022/08/06 07:21:39;;;;;;;7.70;2.50;;;;;;;16.09;92.37;100941.17;107674;1267;22554;-78
2022/08/06 07:24:12;;;;;;;8.40;1.80;;;;;;;16.07;92.63;100935.89;107441;1268;22652;-78
2022/08/06 07:26:47;;;;;;;6.00;2.00;;;;;;;16.07;92.59;100939.16;107423;1267;22554;-78
2022/08/06 07:29:20;;;;;;;6.80;2.10;;;;;;;16.08;92.46;100941.63;108351;1267;22478;-78
2022/08/06 07:31:53;;;;;;;9.10;2.10;;;;;;;16.09;92.60;100939.53;108441;1267;25361;-78
2022/08/06 07:34:26;;;;;;;11.20;2.40;;;;;;;16.10;92.28;100938.57;107616;1268;22700;-79
2022/08/06 07:36:58;;;;;;;7.60;1.90;;;;;;;16.11;92.46;100938.63;107369;1267;22550;-78
2022/08/06 07:39:33;;;;;;;6.10;1.80;;;;;;;16.09;92.46;100937.02;107390;1268;22558;-79
2022/08/06 07:42:12;;;;;;;7.70;2.10;;;;;;;16.08;92.47;100938.55;107415;1268;22536;-78
2022/08/06 07:44:49;;;;;;;8.20;1.90;;;;;;;16.07;92.81;100938.81;107392;1268;22524;-78
2022/08/06 07:47:23;;;;;;;9.40;2.20;;;;;;;16.06;92.38;100947.77;107362;1268;25624;-79
2022/08/06 07:49:58;;;;;;;8.60;1.90;;;;;;;16.06;92.49;100951.14;107360;1267;22531;-78
2022/08/06 07:52:30;;;;;;;7.50;2.40;;;;;;;16.08;92.66;100956.77;107237;1267;25316;-78
2022/08/06 07:55:03;;;;;;;8.10;2.50;;;;;;;16.09;92.64;100959.41;107231;1267;22710;-77
2022/08/06 07:57:35;;;;;;;8.60;2.60;;;;;;;16.11;92.90;100964.27;107198;1267;22602;-78
2022/08/06 08:00:09;;;;;;;9.00;2.40;;;;;;;16.12;92.81;100966.14;107269;1267;22543;-77
2022/08/06 08:06:17;;;;;;;9.00;2.40;;;;;;;16.13;92.82;100971.98;107345;1267;22525;-78
2022/08/06 08:08:24;;;;;;;8.80;2.00;;;;;;;16.17;93.03;100980.57;107275;1267;22602;-79
2022/08/06 08:10:55;;;;;;;9.30;2.60;;;;;;;16.18;92.76;100982.92;107242;1268;22986;-79
2022/08/06 08:13:28;;;;;;;9.70;2.40;;;;;;;16.19;92.71;100985.26;107255;1267;22540;-78
2022/08/06 08:16:02;;;;;;;8.00;2.70;;;;;;;16.21;92.91;100986.34;107248;1267;22528;-78
2022/08/06 08:18:34;;;;;;;9.40;2.10;;;;;;;16.23;92.50;100985.48;107259;1267;24173;-78
2022/08/06 08:21:07;;;;;;;6.70;2.20;;;;;;;16.26;92.77;100992.02;107284;1267;22594;-78
2022/08/06 08:23:41;;;;;;;5.30;1.70;;;;;;;16.28;92.29;101000.17;107330;1267;23386;-78
2022/08/06 08:26:12;;;;;;;7.60;2.40;;;;;;;16.30;92.46;100997.84;107238;1267;24047;-79
2022/08/06 08:28:43;;;;;;;8.10;2.30;;;;;;;16.32;92.66;101003.84;107463;1267;22678;-79
2022/08/06 08:31:16;;;;;;;7.40;1.90;;;;;;;16.31;92.81;101009.88;107489;1267;22558;-79
2022/08/06 08:33:47;;;;;;;7.70;2.00;;;;;;;16.29;92.23;101010.69;107808;1267;22540;-79
2022/08/06 08:36:20;;;;;;;8.60;2.20;;;;;;;16.30;92.23;101015.92;107524;1267;25373;-80
2022/08/06 08:38:56;;;;;;;6.90;1.90;;;;;;;16.33;92.26;101020.65;107456;1267;22478;-78
2022/08/06 08:41:29;;;;;;;5.00;1.90;;;;;;;16.34;92.07;101029.63;107496;1267;25415;-78
2022/08/06 08:44:03;;;;;;;7.70;2.30;;;;;;;16.34;92.12;101023.44;107551;1268;22547;-79
2022/08/06 08:46:40;;;;;;;4.80;1.90;;;;;;;16.34;92.14;101025.02;107535;1267;22568;-79
2022/08/06 08:49:21;;;;;;;6.90;1.40;;;;;;;16.34;91.91;101026.34;107785;1267;22546;-79
2022/08/06 08:51:55;;;;;;;9.40;1.80;;;;;;;16.34;91.70;101024.15;107754;1268;23972;-78
2022/08/06 08:54:30;;;;;;;5.90;1.80;;;;;;;16.35;91.72;101019.64;107669;1267;25377;-79
2022/08/06 08:57:02;;;;;;;6.70;1.80;;;;;;;16.38;91.72;101026.17;107537;1267;22471;-80
2022/08/06 08:59:35;;;;;;;5.70;1.50;;;;;;;16.40;91.67;101027.68;107561;1267;22540;-78
2022/08/06 09:02:08;;;;;;;4.30;1.40;;;;;;;16.45;91.66;101031.88;107431;1267;24225;-78
2022/08/06 09:04:39;;;;;;;4.80;1.50;;;;;;;16.49;90.94;101028.89;107440;1267;23348;-79
2022/08/06 09:07:12;;;;;;;8.70;2.00;;;;;;;16.56;91.30;101024.30;107489;1267;23858;-78
2022/08/06 09:09:44;;;;;;;5.60;1.60;;;;;;;16.64;91.31;101026.46;107676;1267;25968;-79
2022/08/06 09:12:15;;;;;;;5.00;1.90;;;;;;;16.74;91.15;101030.01;107567;1267;26481;-79
2022/08/06 09:14:47;;;;;;;6.20;1.70;;;;;;;16.84;90.89;101033.86;107522;1266;24343;-78
2022/08/06 09:17:18;;;;;;;5.20;1.60;;;;;;;16.92;90.06;101031.34;107529;1267;22996;-79
2022/08/06 09:19:50;;;;;;;5.00;1.60;;;;;;;17.00;90.05;101035.55;107495;1267;22620;-79
2022/08/06 09:22:21;;;;;;;5.80;1.50;;;;;;;17.09;90.04;101034.26;107513;1268;22544;-80
2022/08/06 09:24:52;;;;;;;9.70;2.70;;;;;;;17.16;89.74;101035.52;107482;1267;25383;-79
2022/08/06 09:27:23;;;;;;;5.70;1.60;;;;;;;17.21;89.77;101038.52;107529;1267;22614;-79
2022/08/06 09:29:57;;;;;;;9.70;2.00;;;;;;;17.28;89.09;101040.88;107595;1267;22545;-78
2022/08/06 09:32:43;;;;;;;7.10;2.00;;;;;;;17.33;88.74;101043.30;107615;1267;25536;-79
2022/08/06 09:35:22;;;;;;;5.50;1.40;;;;;;;17.36;88.52;101047.38;107538;1267;22539;-79
2022/08/06 09:38:04;;;;;;;6.10;1.60;;;;;;;17.42;88.52;101048.67;107517;1267;25497;-79
2022/08/06 09:40:35;;;;;;;5.90;1.60;;;;;;;17.49;87.93;101048.41;107791;1268;22538;-79
2022/08/06 09:43:06;;;;;;;5.80;1.80;;;;;;;17.55;88.01;101048.14;107803;1268;23364;-79
2022/08/06 09:45:45;;;;;;;6.60;1.80;;;;;;;17.63;87.69;101048.77;107579;1267;22570;-78
2022/08/06 09:48:16;;;;;;;5.30;1.80;;;;;;;17.69;87.15;101049.52;107470;1268;22589;-79
2022/08/06 09:50:48;;;;;;;7.10;1.90;;;;;;;17.71;86.67;101052.60;107507;1267;22702;-78
2022/08/06 09:53:21;;;;;;;6.30;1.70;;;;;;;17.75;86.17;101055.45;107435;1267;24208;-80
2022/08/06 09:55:54;;;;;;;6.60;1.70;;;;;;;17.79;86.20;101054.05;107317;1267;24259;-79
2022/08/06 09:58:35;;;;;;;5.40;1.70;;;;;;;17.87;86.02;101054.28;107377;1268;22582;-79
2022/08/06 10:01:17;;;;;;;7.50;1.80;;;;;;;17.91;84.97;101058.55;107398;1267;22480;-79
2022/08/06 10:03:49;;;;;;;6.30;1.70;;;;;;;17.93;84.88;101058.76;107370;1267;22666;-79
2022/08/06 10:06:21;;;;;;;6.10;1.40;;;;;;;17.99;85.10;101059.70;103603;1267;25322;-80
2022/08/06 10:09:05;;;;;;;5.10;1.80;;;;;;;18.01;83.89;101060.23;107710;1267;22560;-79
2022/08/06 10:11:41;;;;;;;7.70;1.70;;;;;;;18.04;84.27;101070.66;107402;1267;25316;-79
2022/08/06 10:14:24;;;;;;;6.50;2.10;;;;;;;18.08;83.63;101074.98;107409;1267;22579;-79
2022/08/06 10:17:10;;;;;;;6.60;1.60;;;;;;;18.06;83.02;101073.64;107691;1267;22582;-79
2022/08/06 10:19:43;;;;;;;5.40;1.80;;;;;;;18.10;82.72;101077.39;107410;1267;22528;-80
2022/08/06 10:22:16;;;;;;;5.40;1.60;;;;;;;18.17;81.64;101073.04;107597;1267;22559;-80
2022/08/06 10:24:51;;;;;;;6.00;1.40;;;;;;;18.24;79.91;101069.23;107616;1267;22608;-79
2022/08/06 10:27:26;;;;;;;4.40;1.20;;;;;;;18.35;80.29;101067.49;107627;1267;22527;-80
2022/08/06 10:30:02;;;;;;;5.40;1.10;;;;;;;18.50;80.03;101070.98;107436;1267;22580;-79
2022/08/06 10:32:38;;;;;;;5.60;1.30;;;;;;;18.61;78.76;101070.25;107311;1267;22533;-79
2022/08/06 10:35:12;;;;;;;4.60;1.20;;;;;;;18.67;78.10;101072.27;107377;1267;25366;-79
2022/08/06 10:37:47;;;;;;;4.30;1.10;;;;;;;18.68;77.34;101077.30;107380;1267;22600;-79
2022/08/06 10:40:21;;;;;;;3.90;1.30;;;;;;;18.66;77.19;101071.55;107428;1267;24201;-79
2022/08/06 10:42:54;;;;;;;6.00;1.30;;;;;;;18.70;77.20;101073.89;107507;1268;25500;-79
2022/08/06 10:45:27;;;;;;;6.30;1.30;;;;;;;18.79;76.90;101069.92;107467;1267;23438;-79
2022/08/06 10:47:59;;;;;;;4.10;1.20;;;;;;;18.87;76.18;101069.10;107458;1268;22745;-80
2022/08/06 10:50:31;;;;;;;3.60;1.10;;;;;;;18.92;74.72;101073.98;107494;1267;22533;-79
2022/08/06 10:53:05;;;;;;;4.90;1.10;;;;;;;18.98;74.74;101071.19;107402;1269;23749;-79
2022/08/06 10:55:37;;;;;;;6.90;1.00;;;;;;;19.04;73.81;101068.64;107441;1269;25136;-79
2022/08/06 10:58:10;;;;;;;5.80;1.20;;;;;;;19.09;73.25;101064.15;107433;1267;25694;-79
2022/08/06 11:00:44;;;;;;;2.80;1.00;;;;;;;19.14;73.26;101067.45;107378;1267;22534;-79
2022/08/06 11:03:23;;;;;;;4.60;1.10;;;;;;;19.22;73.22;101066.50;107355;1267;22620;-80
2022/08/06 11:06:03;;;;;;;4.00;1.10;;;;;;;19.34;71.39;101069.82;107458;1267;22726;-79
2022/08/06 11:08:50;;;;;;;2.70;0.90;;;;;;;19.43;71.02;101068.55;107334;1270;22565;-79
2022/08/06 11:11:32;;;;;;;6.60;1.00;;;;;;;19.55;71.53;101064.69;107482;1267;22527;-79
2022/08/06 11:14:08;;;;;;;2.30;0.90;;;;;;;19.71;70.99;101058.75;107430;1267;22588;-79
2022/08/06 11:16:40;;;;;;;5.00;1.00;;;;;;;19.78;70.95;101064.58;107366;1267;22629;-80
2022/08/06 11:19:13;;;;;;;3.80;1.10;;;;;;;19.84;69.95;101064.40;107247;1268;22543;-80
2022/08/06 11:21:46;;;;;;;4.80;1.10;;;;;;;19.83;70.41;101056.00;107433;1267;22469;-79
2022/08/06 11:24:17;;;;;;;2.30;0.90;;;;;;;19.84;70.15;101056.96;107392;1267;22526;-79
2022/08/06 11:26:48;;;;;;;3.00;0.90;;;;;;;19.88;69.75;101056.65;107389;1267;22663;-80
2022/08/06 11:29:19;;;;;;;3.00;0.80;;;;;;;19.95;68.96;101048.88;107401;1267;22560;-80
2022/08/06 11:31:51;;;;;;;1.30;0.50;;;;;;;20.05;68.16;101051.27;107306;1268;22555;-79
2022/08/06 11:34:40;;;;;;;3.70;0.80;;;;;;;20.08;65.86;101050.53;107150;1269;22659;-80
2022/08/06 11:37:12;;;;;;;2.60;0.70;;;;;;;20.13;66.80;101048.80;107192;1268;23113;-79
2022/08/06 11:40:10;;;;;;;2.70;0.50;;;;;;;20.21;65.31;101047.10;107055;1268;22563;-79
2022/08/06 11:42:50;;;;;;;5.00;0.60;;;;;;;20.22;64.65;101049.89;107467;1269;22498;-79
2022/08/06 11:45:22;;;;;;;2.10;0.50;;;;;;;20.19;62.84;101053.25;107320;1267;22536;-79
2022/08/06 11:48:09;;;;;;;4.30;0.50;;;;;;;20.12;63.51;101048.64;107249;1267;22534;-80
2022/08/06 11:50:40;;;;;;;7.00;0.70;;;;;;;20.06;62.78;101048.84;107355;1267;22708;-79
2022/08/06 11:53:12;;;;;;;2.40;0.60;;;;;;;20.09;63.60;101051.61;107390;1267;23071;-79